Time;durP1;ratioP1;P1;durP2;ratioP2;P2;SDS_P1;SDS_P2;PMS_P1;PMS_P2;Temp;Humidity;BMP_temperature;BMP_pressure;BME280_temperature;BME280_humidity;BME280_pressure;Samples;Min_cycle;Max_cycle;Signal;HPM_P1;HPM_P2
2021/11/08 02:04:47;;;;;;;14.63;9.65;;;8.90;99.90;;;;;;5125368;27;20499;-89
2021/11/08 02:07:13;;;;;;;10.98;6.72;;;9.20;99.90;;;;;;5124705;28;20482;-89
2021/11/08 02:09:39;;;;;;;12.10;7.63;;;9.10;99.90;;;;;;5090955;28;20025;-89
2021/11/08 02:12:09;;;;;;;9.52;6.68;;;9.00;99.90;;;;;;5090479;28;20071;-88
2021/11/08 02:14:37;;;;;;;11.95;6.55;;;9.00;99.90;;;;;;5091340;28;20020;-88
2021/11/08 02:17:03;;;;;;;8.98;5.10;;;8.90;99.90;;;;;;5090417;28;20079;-89
2021/11/08 02:19:29;;;;;;;9.65;5.75;;;8.90;99.90;;;;;;5124716;28;20466;-89
2021/11/08 02:21:56;;;;;;;11.90;6.75;;;8.80;99.90;;;;;;5125267;28;20447;-88
2021/11/08 02:24:25;;;;;;;9.65;5.65;;;8.80;99.90;;;;;;5091798;28;20073;-89
2021/11/08 02:26:51;;;;;;;8.63;5.30;;;8.70;99.90;;;;;;5124347;28;20048;-89
2021/11/08 02:29:16;;;;;;;10.05;7.00;;;8.70;99.90;;;;;;5124186;28;20450;-88
2021/11/08 02:31:43;;;;;;;8.30;5.78;;;8.70;99.90;;;;;;5090225;28;20024;-89
2021/11/08 02:34:09;;;;;;;8.20;5.30;;;8.60;99.90;;;;;;5089855;28;20047;-88
2021/11/08 02:36:41;;;;;;;10.93;5.18;;;8.60;99.90;;;;;;5091228;28;20028;-88
2021/11/08 02:39:07;;;;;;;10.13;5.82;;;8.60;99.90;;;;;;5124220;28;20020;-89
2021/11/08 02:41:33;;;;;;;10.27;5.68;;;8.60;99.90;;;;;;5124880;28;20028;-88
2021/11/08 02:44:00;;;;;;;10.48;6.05;;;8.50;99.90;;;;;;5124036;28;20039;-88
2021/11/08 02:46:27;;;;;;;9.98;5.70;;;8.50;99.90;;;;;;5124170;28;20480;-88
2021/11/08 02:48:53;;;;;;;10.18;5.85;;;8.50;99.90;;;;;;5124138;28;20031;-88
2021/11/08 02:51:22;;;;;;;9.95;5.97;;;8.50;99.90;;;;;;5123720;28;20028;-89
2021/11/08 02:53:52;;;;;;;10.55;7.47;;;8.50;99.90;;;;;;5110560;28;20394;-89
2021/11/08 02:56:19;;;;;;;10.68;6.47;;;8.50;99.90;;;;;;5069852;28;20459;-88
2021/11/08 02:58:46;;;;;;;9.50;6.53;;;8.50;99.90;;;;;;5069503;28;20032;-88
2021/11/08 03:01:15;;;;;;;8.88;5.25;;;8.60;99.90;;;;;;5069508;28;20036;-89
2021/11/08 03:03:44;;;;;;;7.70;5.22;;;8.60;99.90;;;;;;5067502;28;20060;-89
2021/11/08 03:06:32;;;;;;;7.00;5.22;;;8.70;99.90;;;;;;5056264;28;20025;-88
2021/11/08 03:09:01;;;;;;;11.73;5.97;;;8.70;99.90;;;;;;5057181;28;20029;-88
2021/11/08 03:11:27;;;;;;;10.20;5.85;;;8.80;99.90;;;;;;5056183;28;20120;-88
2021/11/08 03:14:04;;;;;;;8.13;5.10;;;8.80;99.90;;;;;;5055950;28;20040;-88
2021/11/08 03:16:42;;;;;;;11.65;6.43;;;8.90;99.90;;;;;;5056286;28;20132;-88
2021/11/08 03:19:20;;;;;;;11.35;6.88;;;9.00;99.90;;;;;;5056550;28;20459;-88
2021/11/08 03:21:54;;;;;;;9.20;6.55;;;9.00;99.90;;;;;;5056410;28;20466;-88
2021/11/08 03:24:36;;;;;;;;;;;9.00;99.90;;;;;;5057133;28;20090;-88
2021/11/08 03:27:09;;;;;;;10.18;6.07;;;9.10;99.90;;;;;;5056776;28;19965;-88
2021/11/08 03:29:35;;;;;;;13.80;7.60;;;9.10;99.90;;;;;;5058087;28;20029;-88
2021/11/08 03:32:01;;;;;;;8.05;6.78;;;9.10;99.90;;;;;;5059029;28;20533;-88
2021/11/08 03:34:29;;;;;;;12.30;6.95;;;9.20;99.90;;;;;;5058720;28;20029;-88
2021/11/08 03:36:56;;;;;;;9.68;6.25;;;9.20;99.90;;;;;;5058674;28;20021;-88
2021/11/08 03:39:22;;;;;;;10.70;7.75;;;9.20;99.90;;;;;;5055616;28;20383;-88
2021/11/08 03:41:48;;;;;;;13.07;9.38;;;9.20;99.90;;;;;;5055326;28;20029;-88
2021/11/08 03:44:14;;;;;;;12.43;7.97;;;9.20;99.90;;;;;;5055421;28;20036;-88
2021/11/08 03:46:39;;;;;;;13.25;8.77;;;9.20;99.90;;;;;;5055671;28;20418;-88
2021/11/08 03:49:06;;;;;;;11.52;7.90;;;9.20;99.90;;;;;;5055497;28;20425;-88
2021/11/08 03:51:33;;;;;;;17.35;10.70;;;9.20;99.90;;;;;;5055572;28;20462;-88
2021/11/08 03:53:59;;;;;;;12.98;7.47;;;9.20;99.90;;;;;;5054998;28;20041;-88
2021/11/08 03:56:25;;;;;;;13.10;7.72;;;9.20;99.90;;;;;;5055975;28;20025;-88
2021/11/08 03:58:51;;;;;;;14.13;9.60;;;9.20;99.90;;;;;;5055197;28;20025;-88
2021/11/08 04:01:17;;;;;;;14.30;9.30;;;9.20;99.90;;;;;;5055593;28;20078;-88
2021/11/08 04:03:43;;;;;;;13.73;9.10;;;9.20;99.90;;;;;;5055945;28;20086;-88
2021/11/08 04:06:09;;;;;;;14.13;8.93;;;9.30;99.90;;;;;;5054896;28;20499;-88
2021/11/08 04:08:36;;;;;;;11.15;7.93;;;9.30;99.90;;;;;;5056240;28;20024;-88
2021/11/08 04:11:02;;;;;;;11.73;8.07;;;9.30;99.90;;;;;;5054765;28;20083;-88
2021/11/08 04:13:33;;;;;;;12.25;8.23;;;9.20;99.90;;;;;;5054860;28;20036;-88
2021/11/08 04:16:01;;;;;;;11.55;6.45;;;9.20;99.90;;;;;;5053844;28;20053;-88
2021/11/08 04:18:28;;;;;;;11.60;7.40;;;9.20;99.90;;;;;;5054702;28;20083;-88
2021/11/08 04:20:56;;;;;;;10.20;6.80;;;9.20;99.90;;;;;;5054904;28;20024;-88
2021/11/08 04:23:24;;;;;;;12.60;6.50;;;9.20;99.90;;;;;;5054824;28;20035;-88
2021/11/08 04:25:52;;;;;;;12.23;7.65;;;9.20;99.90;;;;;;5054269;28;20433;-88
2021/11/08 04:28:18;;;;;;;14.45;8.95;;;9.20;99.90;;;;;;5054630;28;20025;-88
2021/11/08 04:30:45;;;;;;;15.35;9.70;;;9.20;99.90;;;;;;5054776;28;20036;-88
2021/11/08 04:33:19;;;;;;;16.13;8.63;;;9.20;99.90;;;;;;5054597;28;20037;-88
2021/11/08 04:44:03;;;;;;;16.42;9.93;;;9.10;99.90;;;;;;5055721;28;20037;-88
2021/11/08 05:21:58;;;;;;;13.15;8.32;;;8.60;99.90;;;;;;5054939;28;20040;-87
2021/11/08 05:32:21;;;;;;;16.67;10.25;;;8.60;99.90;;;;;;5055625;28;20036;-88
2021/11/08 05:34:47;;;;;;;19.85;8.35;;;8.60;99.90;;;;;;5055559;28;20056;-88
2021/11/08 05:37:13;;;;;;;19.73;9.80;;;8.60;99.90;;;;;;5054436;28;20029;-88
2021/11/08 05:40:03;;;;;;;15.27;9.43;;;8.60;99.90;;;;;;5053961;28;20494;-88
2021/11/08 05:42:29;;;;;;;15.45;9.48;;;8.60;99.90;;;;;;5054031;28;20029;-88
2021/11/08 05:44:55;;;;;;;12.40;8.10;;;8.60;99.90;;;;;;5054507;28;20543;-88
2021/11/08 05:47:21;;;;;;;12.02;7.00;;;8.60;99.90;;;;;;5054303;28;20029;-88
2021/11/08 05:49:46;;;;;;;15.80;9.38;;;8.60;99.90;;;;;;5053351;28;20459;-87
2021/11/08 05:52:14;;;;;;;17.65;9.98;;;8.70;99.90;;;;;;5056153;28;20033;-87
2021/11/08 05:54:42;;;;;;;15.10;8.68;;;8.70;99.90;;;;;;5053830;28;20036;-88
2021/11/08 06:49:24;;;;;;;16.60;10.77;;;9.30;99.90;;;;;;5059385;28;20048;-88
2021/11/08 06:51:51;;;;;;;18.48;11.80;;;9.30;99.90;;;;;;5057388;28;20024;-87
2021/11/08 06:54:19;;;;;;;17.00;11.40;;;9.30;99.90;;;;;;5059272;28;20060;-87
2021/11/08 06:56:51;;;;;;;17.20;10.98;;;9.30;99.90;;;;;;5057212;28;20493;-87
2021/11/08 06:59:19;;;;;;;19.77;10.80;;;9.30;99.90;;;;;;5056804;28;20388;-87
2021/11/08 07:01:48;;;;;;;15.25;10.25;;;9.30;99.90;;;;;;5056423;28;20440;-89
2021/11/08 07:04:18;;;;;;;15.82;10.35;;;9.30;99.90;;;;;;5055628;28;20052;-88
2021/11/08 07:06:47;;;;;;;14.95;9.82;;;9.40;99.90;;;;;;5055901;28;20029;-88
2021/11/08 07:09:16;;;;;;;15.75;10.40;;;9.40;99.90;;;;;;5056245;28;20459;-89
2021/11/08 07:11:42;;;;;;;15.43;8.90;;;9.50;99.90;;;;;;5057308;28;20059;-87
2021/11/08 07:14:10;;;;;;;17.00;12.57;;;9.60;99.90;;;;;;5056084;28;20036;-87
2021/11/08 07:16:38;;;;;;;16.92;11.23;;;9.70;99.90;;;;;;5056820;28;20051;-88
2021/11/08 07:19:05;;;;;;;18.73;11.07;;;9.80;99.90;;;;;;5055780;28;20021;-87
2021/11/08 07:21:31;;;;;;;16.92;11.13;;;9.90;99.90;;;;;;5056637;28;20039;-87
2021/11/08 07:23:59;;;;;;;15.85;11.85;;;9.90;99.90;;;;;;5055677;28;20442;-87
2021/11/08 07:26:26;;;;;;;16.58;9.85;;;9.90;99.90;;;;;;5056497;28;20036;-87
2021/11/08 07:28:52;;;;;;;20.40;10.77;;;9.90;99.90;;;;;;5055450;28;20036;-88
2021/11/08 07:31:18;;;;;;;15.82;11.15;;;10.00;99.90;;;;;;5054519;28;20025;-88
2021/11/08 07:33:50;;;;;;;15.77;8.95;;;10.10;99.90;;;;;;5056620;28;20471;-88
2021/11/08 07:36:16;;;;;;;15.48;10.80;;;10.20;99.90;;;;;;5054946;28;20029;-87
2021/11/08 07:38:44;;;;;;;14.48;10.20;;;10.30;99.90;;;;;;5056394;28;20364;-87
2021/11/08 07:41:11;;;;;;;18.98;11.45;;;10.40;99.90;;;;;;5055679;28;20060;-88
2021/11/08 07:43:40;;;;;;;15.93;10.82;;;10.50;99.90;;;;;;5059833;28;20039;-89
2021/11/08 07:46:07;;;;;;;17.33;11.80;;;10.50;99.90;;;;;;5061889;28;20029;-88
2021/11/08 07:48:39;;;;;;;19.13;11.82;;;10.60;99.90;;;;;;5061770;28;20037;-87
2021/11/08 07:51:05;;;;;;;16.02;11.48;;;10.60;99.90;;;;;;5055457;28;20116;-87
2021/11/08 07:53:31;;;;;;;13.88;10.38;;;10.60;99.90;;;;;;5055372;28;20041;-87
2021/11/08 07:55:57;;;;;;;14.73;9.80;;;10.60;99.90;;;;;;5055714;28;20078;-88
2021/11/08 07:58:23;;;;;;;12.05;9.00;;;10.60;99.90;;;;;;5055159;28;20061;-90
2021/11/08 08:00:49;;;;;;;13.75;9.10;;;10.70;99.90;;;;;;5056021;28;20384;-88
2021/11/08 08:03:21;;;;;;;11.88;8.75;;;10.80;99.90;;;;;;5055671;28;20050;-92
2021/11/08 08:05:47;;;;;;;15.82;9.50;;;10.80;99.90;;;;;;5042773;28;20037;-86
2021/11/08 08:08:13;;;;;;;11.13;8.45;;;10.90;99.90;;;;;;5052190;28;20036;-89
2021/11/08 08:10:39;;;;;;;15.35;10.75;;;11.00;99.90;;;;;;5054885;28;20025;-86
2021/11/08 08:13:05;;;;;;;16.35;10.13;;;11.10;99.90;;;;;;5053753;28;20040;-85
2021/11/08 08:15:31;;;;;;;14.63;9.65;;;11.20;99.90;;;;;;5053447;28;20032;-85
2021/11/08 08:17:58;;;;;;;17.88;8.82;;;11.20;99.90;;;;;;5053406;28;20411;-85
2021/11/08 08:20:26;;;;;;;13.27;9.07;;;11.30;99.70;;;;;;5053413;28;20033;-86
2021/11/08 08:22:52;;;;;;;12.48;9.48;;;11.40;99.90;;;;;;5053325;28;20525;-87
2021/11/08 08:25:19;;;;;;;12.13;9.23;;;11.60;99.40;;;;;;5058088;28;20116;-87
2021/11/08 08:27:46;;;;;;;13.77;10.18;;;11.60;98.90;;;;;;5053305;28;20380;-87
2021/11/08 08:30:12;;;;;;;15.02;10.00;;;11.60;98.20;;;;;;5054411;28;20025;-87
2021/11/08 08:32:39;;;;;;;14.02;9.75;;;11.70;98.90;;;;;;5053914;28;20037;-87
2021/11/08 08:35:07;;;;;;;13.55;8.75;;;11.90;98.10;;;;;;5053607;28;20036;-86
2021/11/08 08:37:33;;;;;;;12.68;8.55;;;11.90;96.50;;;;;;5053620;28;20032;-87
2021/11/08 08:40:00;;;;;;;13.30;9.02;;;11.90;94.90;;;;;;5053342;28;20215;-87
2021/11/08 08:42:26;;;;;;;18.20;9.57;;;11.90;94.40;;;;;;5054037;28;20060;-87
2021/11/08 08:44:52;;;;;;;17.40;8.70;;;11.90;94.20;;;;;;5054464;28;20082;-86
2021/11/08 08:47:18;;;;;;;13.00;8.52;;;11.80;93.50;;;;;;5052815;28;20112;-87
2021/11/08 08:49:45;;;;;;;13.57;8.32;;;11.80;93.30;;;;;;5053418;28;20466;-88
2021/11/08 08:52:11;;;;;;;11.10;8.27;;;11.80;92.70;;;;;;5050058;28;20163;-87
2021/11/08 08:54:38;;;;;;;12.18;7.20;;;11.80;93.50;;;;;;5053482;28;20043;-87
2021/11/08 08:57:05;;;;;;;14.70;8.95;;;11.80;94.00;;;;;;5052533;28;20029;-86
2021/11/08 08:59:31;;;;;;;10.95;7.70;;;11.80;91.60;;;;;;5052984;28;20032;-87
2021/11/08 09:01:57;;;;;;;10.73;8.00;;;11.90;92.50;;;;;;5052184;28;20094;-86
2021/11/08 09:04:25;;;;;;;10.40;7.75;;;12.00;93.00;;;;;;5053837;28;20056;-86
2021/11/08 09:06:51;;;;;;;10.60;7.90;;;12.10;92.10;;;;;;5064891;28;20025;-86
2021/11/08 09:09:17;;;;;;;11.93;8.85;;;12.10;90.90;;;;;;5052860;28;20121;-87
2021/11/08 09:11:43;;;;;;;11.75;7.55;;;12.10;90.10;;;;;;5052731;28;20025;-87
2021/11/08 09:14:08;;;;;;;13.05;7.72;;;12.10;91.00;;;;;;5052119;28;20036;-87
2021/11/08 09:16:34;;;;;;;15.02;7.22;;;12.10;90.30;;;;;;5046037;28;20025;-87
2021/11/08 09:19:01;;;;;;;11.13;8.48;;;12.10;90.30;;;;;;5052804;28;20021;-87
2021/11/08 09:21:28;;;;;;;12.63;7.95;;;12.10;90.10;;;;;;5052367;28;20021;-88
2021/11/08 09:27:52;;;;;;;10.60;7.45;;;12.00;88.10;;;;;;5013491;28;20098;-92
2021/11/08 09:30:20;;;;;;;9.75;7.63;;;11.90;90.00;;;;;;5016979;28;20030;-91
2021/11/08 09:32:46;;;;;;;22.27;9.35;;;11.80;90.20;;;;;;5046768;28;20045;-92
2021/11/08 09:35:13;;;;;;;13.77;8.60;;;11.80;90.00;;;;;;5060690;28;20029;-92
2021/11/08 09:37:47;;;;;;;14.38;8.00;;;11.80;89.20;;;;;;5063037;28;20075;-91
2021/11/08 09:40:21;;;;;;;12.07;7.70;;;11.80;90.50;;;;;;5064260;28;20104;-91
2021/11/08 09:42:50;;;;;;;11.48;8.52;;;11.80;90.20;;;;;;5064512;28;20040;-89
2021/11/08 09:45:16;;;;;;;12.02;7.53;;;11.80;90.60;;;;;;5064531;28;20097;-91
2021/11/08 09:47:45;;;;;;;15.88;9.18;;;11.80;90.10;;;;;;5059830;28;20480;-90
2021/11/08 09:50:58;;;;;;;10.93;7.85;;;11.80;89.20;;;;;;5055224;28;20025;-92
2021/11/08 09:53:30;;;;;;;10.13;7.15;;;11.80;90.30;;;;;;5051812;28;20768;-91
2021/11/08 09:56:07;;;;;;;9.55;7.13;;;11.80;91.00;;;;;;5065358;28;20068;-91
2021/11/08 09:58:43;;;;;;;12.43;8.45;;;11.90;90.90;;;;;;5075938;28;20044;-91
2021/11/08 10:01:14;;;;;;;12.30;8.48;;;12.00;89.00;;;;;;5067460;28;20203;-90
2021/11/08 10:03:46;;;;;;;13.65;8.50;;;12.00;90.00;;;;;;5068667;28;20087;-90
2021/11/08 10:06:21;;;;;;;11.02;7.47;;;12.00;89.10;;;;;;5045312;28;20045;-91
2021/11/08 10:08:48;;;;;;;10.07;6.85;;;12.00;90.10;;;;;;5053062;28;20088;-90
2021/11/08 10:11:17;;;;;;;11.20;7.75;;;12.10;90.30;;;;;;5052906;28;20029;-90
2021/11/08 10:13:45;;;;;;;13.93;9.43;;;12.10;90.20;;;;;;5050627;28;20037;-90
2021/11/08 10:16:38;;;;;;;11.50;7.72;;;12.10;89.40;;;;;;5059903;28;20036;-91
2021/11/08 10:19:14;;;;;;;9.90;8.05;;;12.10;89.10;;;;;;5078220;28;20036;-90
2021/11/08 10:21:43;;;;;;;12.63;9.00;;;12.10;88.90;;;;;;5064240;28;20052;-90
2021/11/08 10:24:37;;;;;;;10.73;7.82;;;12.10;87.50;;;;;;5068676;28;20045;-93
2021/11/08 10:27:07;;;;;;;12.15;7.40;;;12.10;86.90;;;;;;5040567;28;20360;-89
2021/11/08 10:29:34;;;;;;;12.60;8.38;;;12.20;89.90;;;;;;5055780;28;20060;-90
2021/11/08 10:32:07;;;;;;;11.43;8.73;;;12.30;88.50;;;;;;5055857;28;20498;-89
2021/11/08 10:34:56;;;;;;;14.32;8.65;;;12.40;85.90;;;;;;5052982;28;20148;-87
2021/11/08 10:37:31;;;;;;;12.90;7.57;;;12.40;83.70;;;;;;5055119;28;20043;-88
2021/11/08 10:40:01;;;;;;;12.45;7.95;;;12.40;83.80;;;;;;5035968;28;20041;-88
2021/11/08 10:42:58;;;;;;;11.82;7.25;;;12.40;83.40;;;;;;5083899;28;20091;-89
2021/11/08 10:45:48;;;;;;;13.18;8.73;;;12.40;82.80;;;;;;5049696;28;20221;-90
2021/11/08 10:48:19;;;;;;;14.57;7.97;;;12.40;82.20;;;;;;5053137;28;20040;-90
2021/11/08 10:50:52;;;;;;;10.77;8.35;;;12.40;83.30;;;;;;5059032;28;20032;-88
2021/11/08 10:53:20;;;;;;;11.80;7.63;;;12.40;83.90;;;;;;5059824;28;20063;-91
2021/11/08 10:55:51;;;;;;;12.35;8.73;;;12.40;84.10;;;;;;5056320;28;20115;-89
2021/11/08 10:58:23;;;;;;;11.73;8.18;;;12.30;81.40;;;;;;5053361;28;20033;-88
2021/11/08 11:01:01;;;;;;;12.45;8.48;;;12.30;83.20;;;;;;5055871;28;20021;-90
2021/11/08 11:03:30;;;;;;;15.45;7.35;;;12.20;81.80;;;;;;5055538;28;20052;-89
2021/11/08 11:05:57;;;;;;;10.90;7.72;;;12.20;84.40;;;;;;5059110;28;20033;-89
2021/11/08 11:08:23;;;;;;;10.50;7.35;;;12.20;84.50;;;;;;5056705;28;20471;-88
2021/11/08 11:10:58;;;;;;;10.65;7.93;;;12.30;84.30;;;;;;5058458;28;20040;-90
2021/11/08 11:13:24;;;;;;;11.43;7.13;;;12.40;84.90;;;;;;5055775;28;20032;-88
2021/11/08 11:16:04;;;;;;;12.13;8.63;;;12.50;85.10;;;;;;5056333;28;20032;-90
2021/11/08 11:18:38;;;;;;;11.23;7.82;;;12.60;83.40;;;;;;5056387;28;20029;-89
2021/11/08 11:21:23;;;;;;;;;;;12.50;81.20;;;;;;5056832;28;20072;-90
2021/11/08 11:23:52;;;;;;;10.38;7.22;;;12.50;80.90;;;;;;5055977;28;19905;-90
2021/11/08 11:26:28;;;;;;;11.70;8.13;;;12.50;83.60;;;;;;5055463;28;20021;-89
2021/11/08 11:29:02;;;;;;;9.57;6.45;;;12.40;83.30;;;;;;5055921;28;20082;-90
2021/11/08 11:31:32;;;;;;;9.20;5.88;;;12.40;84.40;;;;;;5055486;28;20020;-90
2021/11/08 11:34:19;;;;;;;8.07;5.82;;;12.40;82.80;;;;;;5055656;28;20048;-89
2021/11/08 11:36:45;;;;;;;9.15;6.18;;;12.40;83.00;;;;;;5054252;28;20052;-87
2021/11/08 11:39:16;;;;;;;10.77;7.32;;;12.40;84.80;;;;;;5054280;28;20029;-88
2021/11/08 11:41:44;;;;;;;11.10;7.30;;;12.40;84.20;;;;;;5054920;28;20043;-88
2021/11/08 11:44:20;;;;;;;10.07;6.13;;;12.30;82.90;;;;;;5053909;28;20032;-87
2021/11/08 11:46:49;;;;;;;10.98;5.88;;;12.30;82.00;;;;;;5054193;28;20116;-87
2021/11/08 11:49:27;;;;;;;9.55;6.38;;;12.20;83.00;;;;;;5038584;28;20044;-92
2021/11/08 11:59:04;;;;;;;6.93;4.78;;;12.20;83.00;;;;;;5005697;28;20030;-92
2021/11/08 12:08:25;;;;;;;7.03;4.88;;;12.10;82.40;;;;;;5004854;28;20033;-93
2021/11/08 12:17:35;;;;;;;7.85;5.13;;;11.90;80.90;;;;;;5011683;28;20419;-93
2021/11/08 12:20:27;;;;;;;7.65;5.40;;;11.80;82.00;;;;;;5032104;28;20037;-92
2021/11/08 12:23:10;;;;;;;8.43;4.45;;;11.70;82.10;;;;;;5044753;28;20161;-94
2021/11/08 12:28:47;;;;;;;7.50;4.55;;;11.60;84.00;;;;;;5022151;28;20048;-93
2021/11/08 12:32:12;;;;;;;6.68;4.47;;;11.50;84.60;;;;;;5025900;28;20055;-93
2021/11/08 12:39:21;;;;;;;8.65;4.40;;;11.50;84.90;;;;;;4911341;28;20069;-94
2021/11/08 12:42:27;;;;;;;10.63;4.32;;;11.50;85.70;;;;;;4971204;28;20074;-94
2021/11/08 12:44:58;;;;;;;7.90;4.28;;;11.50;85.70;;;;;;4976689;28;20042;-94
2021/11/08 12:47:32;;;;;;;6.20;4.45;;;11.50;85.70;;;;;;5031620;28;20010;-95
2021/11/08 12:50:04;;;;;;;9.27;4.47;;;11.50;86.10;;;;;;5030614;28;20025;-93
2021/11/08 12:52:50;;;;;;;5.25;4.28;;;11.40;85.90;;;;;;5047904;28;20017;-94
2021/11/08 12:55:39;;;;;;;;;;;;;;;;;;;;;
2021/11/08 12:58:06;;;;;;;9.35;5.90;;;11.40;84.80;;;;;;5036132;28;20068;-93
2021/11/08 13:00:53;;;;;;;;;;;;;;;;;;;;;
2021/11/08 13:06:27;;;;;;;;;;;;;;;;;;;;;
2021/11/08 13:30:55;;;;;;;11.15;6.18;;;11.10;87.00;;;;;;5003316;28;20058;-92
2021/11/08 13:33:30;;;;;;;8.38;5.68;;;11.10;87.10;;;;;;4981735;28;20048;-94
2021/11/08 13:35:57;;;;;;;8.50;5.82;;;11.10;87.10;;;;;;5024344;28;20389;-94
2021/11/08 13:38:31;;;;;;;8.20;5.45;;;11.10;87.60;;;;;;4998711;28;20030;-94
2021/11/08 13:41:09;;;;;;;9.10;6.20;;;11.00;87.60;;;;;;5021194;28;20022;-94
2021/11/08 13:43:55;;;;;;;8.60;4.43;;;11.00;87.70;;;;;;5015623;28;20018;-94
2021/11/08 13:46:36;;;;;;;6.78;4.60;;;11.00;87.90;;;;;;4980096;28;20029;-93
2021/11/08 13:49:10;;;;;;;8.48;5.55;;;11.00;88.20;;;;;;4986184;28;20042;-93
2021/11/08 13:51:47;;;;;;;8.40;4.60;;;11.00;88.20;;;;;;4994206;28;20113;-93
2021/11/08 13:54:31;;;;;;;6.28;4.63;;;11.00;88.60;;;;;;5006853;28;20037;-92
2021/11/08 13:57:05;;;;;;;9.73;5.32;;;11.00;88.70;;;;;;5005727;28;20041;-93
2021/11/08 13:59:45;;;;;;;9.52;5.75;;;11.00;89.20;;;;;;5007075;28;20464;-92
2021/11/08 14:02:13;;;;;;;8.60;5.93;;;11.00;88.90;;;;;;5009086;28;20026;-93
2021/11/08 14:04:47;;;;;;;8.15;5.68;;;11.00;89.20;;;;;;5008075;28;20032;-93
2021/11/08 14:07:16;;;;;;;;;;;10.90;89.50;;;;;;5011687;28;20041;-92
2021/11/08 14:09:43;;;;;;;9.13;4.80;;;10.90;89.10;;;;;;5004465;28;19906;-91
2021/11/08 14:12:13;;;;;;;9.80;4.60;;;10.90;89.70;;;;;;5017768;28;20061;-93
2021/11/08 14:14:44;;;;;;;7.65;5.30;;;10.90;89.90;;;;;;5009048;28;20140;-93
2021/11/08 14:17:21;;;;;;;8.27;5.22;;;10.90;89.70;;;;;;5006270;28;20030;-92
2021/11/08 14:19:59;;;;;;;8.57;5.43;;;10.80;89.40;;;;;;5001573;28;20029;-93
2021/11/08 14:22:31;;;;;;;10.68;5.40;;;10.80;89.70;;;;;;5008309;28;20093;-92
2021/11/08 14:25:00;;;;;;;6.03;4.95;;;10.80;90.00;;;;;;5012979;28;20026;-93
2021/11/08 14:27:59;;;;;;;9.30;5.93;;;10.80;90.10;;;;;;5020338;28;20511;-94
2021/11/08 14:30:28;;;;;;;7.38;5.05;;;10.80;89.70;;;;;;4992596;28;20810;-93
2021/11/08 14:32:54;;;;;;;8.07;5.85;;;10.80;89.30;;;;;;5002354;28;20053;-92
2021/11/08 14:35:31;;;;;;;9.05;4.78;;;10.70;88.90;;;;;;5000826;28;20030;-92
2021/11/08 14:38:03;;;;;;;7.10;4.25;;;10.70;89.10;;;;;;4984464;28;20029;-93
2021/11/08 14:40:41;;;;;;;5.50;3.92;;;10.70;89.30;;;;;;4999364;28;20142;-92
2021/11/08 14:43:36;;;;;;;6.78;4.32;;;10.70;89.10;;;;;;4998030;28;20129;-92
2021/11/08 14:46:18;;;;;;;9.50;5.43;;;10.70;88.30;;;;;;4987422;28;20121;-91
2021/11/08 14:48:44;;;;;;;7.47;4.25;;;10.70;89.00;;;;;;5001173;28;20026;-92
2021/11/08 14:51:15;;;;;;;8.23;4.85;;;10.60;89.20;;;;;;5002209;28;20110;-92
2021/11/08 14:54:13;;;;;;;7.68;4.30;;;10.70;87.30;;;;;;5004840;28;20041;-91
2021/11/08 14:56:44;;;;;;;5.97;4.13;;;10.60;87.10;;;;;;4997011;28;20038;-92
2021/11/08 14:59:15;;;;;;;5.38;4.28;;;10.60;87.00;;;;;;5006248;28;20069;-92
2021/11/08 15:01:46;;;;;;;9.82;4.55;;;10.60;86.80;;;;;;5008380;28;20517;-92
2021/11/08 15:04:19;;;;;;;8.05;4.82;;;10.60;86.80;;;;;;5009309;28;20052;-93
2021/11/08 15:06:55;;;;;;;9.23;4.95;;;10.60;85.60;;;;;;5009342;28;20057;-92
2021/11/08 15:09:21;;;;;;;5.72;4.72;;;10.60;86.00;;;;;;5005155;28;20038;-92
2021/11/08 15:11:47;;;;;;;12.73;6.53;;;10.50;85.20;;;;;;5007423;28;20030;-92
2021/11/08 15:14:16;;;;;;;10.52;5.60;;;10.50;86.00;;;;;;5004628;28;20065;-91
2021/11/08 15:16:46;;;;;;;11.05;5.18;;;10.50;85.20;;;;;;5014198;28;20030;-92
2021/11/08 15:19:13;;;;;;;5.10;4.13;;;10.50;85.40;;;;;;5012682;28;20030;-92
2021/11/08 15:21:40;;;;;;;6.30;4.63;;;10.40;84.90;;;;;;5001377;28;20029;-91
2021/11/08 15:24:12;;;;;;;6.50;3.75;;;10.50;84.90;;;;;;5004973;28;20030;-91
2021/11/08 15:26:44;;;;;;;8.27;5.32;;;10.50;85.00;;;;;;5011625;28;20031;-90
2021/11/08 15:29:13;;;;;;;6.50;4.25;;;10.40;84.80;;;;;;5007438;28;20145;-92
2021/11/08 15:31:40;;;;;;;6.40;2.92;;;10.40;84.60;;;;;;5008822;28;20128;-91
2021/11/08 15:34:14;;;;;;;4.38;3.35;;;10.40;85.00;;;;;;5006931;28;20048;-90
2021/11/08 15:36:48;;;;;;;6.80;3.58;;;10.40;85.20;;;;;;4999539;28;20038;-91
2021/11/08 15:39:21;;;;;;;5.97;4.07;;;10.40;85.10;;;;;;5006786;28;20058;-91
2021/11/08 15:41:47;;;;;;;7.53;3.30;;;10.40;84.80;;;;;;4999197;28;20023;-91
2021/11/08 15:44:13;;;;;;;5.57;3.65;;;10.40;85.30;;;;;;5003866;28;20038;-90
2021/11/08 15:46:39;;;;;;;5.03;3.90;;;10.40;85.40;;;;;;5010764;28;20469;-92
2021/11/08 15:49:09;;;;;;;7.22;4.88;;;10.40;85.40;;;;;;5003977;28;20026;-92
2021/11/08 15:51:40;;;;;;;6.15;4.45;;;10.40;85.10;;;;;;5009200;28;20132;-91
2021/11/08 15:54:15;;;;;;;7.68;4.57;;;10.40;84.90;;;;;;4999509;28;20076;-93
2021/11/08 15:56:42;;;;;;;7.38;4.63;;;10.40;85.00;;;;;;5014898;28;20022;-93
2021/11/08 15:59:15;;;;;;;7.70;5.13;;;10.40;85.40;;;;;;5009117;28;20026;-93
2021/11/08 16:01:51;;;;;;;11.98;5.35;;;10.40;85.00;;;;;;5009159;28;20046;-92
2021/11/08 16:04:25;;;;;;;6.95;5.25;;;10.40;85.30;;;;;;5000696;28;20084;-92
2021/11/08 16:06:53;;;;;;;;;;;10.40;85.20;;;;;;5011847;28;20026;-93
2021/11/08 16:09:21;;;;;;;8.43;4.68;;;10.30;84.80;;;;;;5004624;28;20048;-91
2021/11/08 16:11:47;;;;;;;7.35;5.18;;;10.30;85.10;;;;;;4998510;28;20030;-92
2021/11/08 16:14:13;;;;;;;9.85;5.10;;;10.30;85.30;;;;;;4999601;28;20492;-92
2021/11/08 16:16:42;;;;;;;7.25;4.45;;;10.30;85.30;;;;;;5006613;28;20460;-92
2021/11/08 16:19:12;;;;;;;7.78;4.38;;;10.30;85.50;;;;;;5007976;28;20075;-92
2021/11/08 16:21:40;;;;;;;5.43;3.58;;;10.30;85.80;;;;;;4991741;28;20338;-92
2021/11/08 16:24:06;;;;;;;9.75;3.47;;;10.30;85.90;;;;;;5001606;28;20054;-92
2021/11/08 16:26:32;;;;;;;6.18;3.63;;;10.30;86.50;;;;;;4999030;28;20058;-91
2021/11/08 16:29:20;;;;;;;5.35;3.22;;;10.30;86.60;;;;;;5016161;28;20054;-91
2021/11/08 16:31:58;;;;;;;4.53;3.33;;;10.30;86.60;;;;;;4975778;28;20043;-91
2021/11/08 16:34:24;;;;;;;6.20;3.42;;;10.30;86.10;;;;;;4967147;28;20051;-91
2021/11/08 16:36:51;;;;;;;7.68;4.00;;;10.30;86.70;;;;;;4968468;28;20181;-92
2021/11/08 16:39:20;;;;;;;7.20;4.95;;;10.40;86.90;;;;;;4967037;28;20027;-92
2021/11/08 16:41:49;;;;;;;7.13;4.50;;;10.30;86.60;;;;;;4969083;28;20090;-94
2021/11/08 16:44:15;;;;;;;7.25;4.65;;;10.30;86.90;;;;;;4961930;28;20507;-89
2021/11/08 16:46:40;;;;;;;6.45;5.13;;;10.30;87.20;;;;;;4958175;28;20034;-90
2021/11/08 16:49:06;;;;;;;8.10;4.53;;;10.30;87.50;;;;;;4958484;28;20030;-90
2021/11/08 16:51:33;;;;;;;8.25;4.63;;;10.20;87.70;;;;;;4976468;28;20116;-89
2021/11/08 16:54:03;;;;;;;6.68;4.32;;;10.20;88.10;;;;;;4958572;28;20038;-90
2021/11/08 16:56:30;;;;;;;6.68;4.35;;;10.20;88.40;;;;;;4959308;28;20092;-89
2021/11/08 16:58:57;;;;;;;10.00;5.53;;;10.10;88.70;;;;;;4976130;28;20110;-90
2021/11/08 17:01:23;;;;;;;8.27;4.68;;;10.20;89.10;;;;;;4958167;28;20074;-90
2021/11/08 17:03:51;;;;;;;9.60;5.72;;;10.10;89.30;;;;;;4958395;28;20085;-90
2021/11/08 17:06:18;;;;;;;6.13;4.55;;;10.10;89.60;;;;;;4957601;28;20439;-90
2021/11/08 17:13:11;;;;;;;7.05;5.05;;;10.00;90.10;;;;;;4976119;28;20027;-89
2021/11/08 17:14:05;;;;;;;10.68;6.65;;;10.00;90.20;;;;;;4973865;28;20102;-89
2021/11/08 17:16:32;;;;;;;9.80;6.25;;;10.00;90.30;;;;;;4959495;28;20401;-90
2021/11/08 17:18:58;;;;;;;10.50;7.55;;;10.00;90.40;;;;;;4959081;28;20125;-90
2021/11/08 17:21:27;;;;;;;14.25;8.18;;;9.90;90.40;;;;;;4958765;28;20545;-90
2021/11/08 17:23:53;;;;;;;14.85;9.95;;;9.90;90.60;;;;;;4975604;28;20027;-89
2021/11/08 17:26:19;;;;;;;11.50;8.15;;;9.90;90.70;;;;;;4976203;28;20031;-90
2021/11/08 17:28:48;;;;;;;9.48;6.70;;;9.80;90.80;;;;;;4959319;28;20130;-89
2021/11/08 17:31:14;;;;;;;7.97;5.32;;;9.80;91.20;;;;;;4975155;28;20046;-89
2021/11/08 17:33:40;;;;;;;9.02;5.60;;;9.70;91.10;;;;;;4978280;28;20034;-89
2021/11/08 17:36:08;;;;;;;9.90;5.65;;;9.70;91.30;;;;;;4978343;28;20065;-90
2021/11/08 17:38:35;;;;;;;7.53;4.35;;;9.70;91.40;;;;;;4978636;28;20077;-90
2021/11/08 17:41:01;;;;;;;8.93;5.60;;;9.70;91.50;;;;;;4978256;28;20393;-90
2021/11/08 17:43:27;;;;;;;7.25;4.60;;;9.70;91.60;;;;;;4979079;28;20448;-90
2021/11/08 17:45:55;;;;;;;8.80;4.72;;;9.70;91.60;;;;;;4978422;28;20057;-90
2021/11/08 17:48:21;;;;;;;7.75;4.65;;;9.70;91.50;;;;;;4978210;28;20027;-89
2021/11/08 17:50:49;;;;;;;6.53;4.43;;;9.70;91.50;;;;;;4977649;28;20073;-90
2021/11/08 17:53:17;;;;;;;7.15;4.28;;;9.70;91.50;;;;;;4977791;28;20105;-90